Time;durP1;ratioP1;P1;durP2;ratioP2;P2;SDS_P1;SDS_P2;PMS_P1;PMS_P2;Temp;Humidity;BMP_temperature;BMP_pressure;BME280_temperature;BME280_humidity;BME280_pressure;Samples;Min_cycle;Max_cycle;Signal;HPM_P1;HPM_P2
2022/10/28 00:01:11;;;;;;;23.88;11.98;;;14.00;99.90;;;;;;6371869;22;20529;-81
2022/10/28 00:03:39;;;;;;;19.58;12.43;;;14.00;99.90;;;;;;6372313;22;20018;-81
2022/10/28 00:06:07;;;;;;;16.27;10.77;;;14.00;99.90;;;;;;6343910;22;20057;-81
2022/10/28 00:08:33;;;;;;;17.65;11.25;;;14.00;99.90;;;;;;6344018;22;20014;-81
2022/10/28 00:11:10;;;;;;;20.63;11.82;;;14.00;99.90;;;;;;6343954;22;20071;-81
2022/10/28 00:13:37;;;;;;;22.85;12.32;;;14.00;99.90;;;;;;6372277;22;20081;-81
2022/10/28 00:16:08;;;;;;;26.10;13.15;;;14.00;99.90;;;;;;6372164;22;20006;-81
2022/10/28 00:18:34;;;;;;;18.83;12.23;;;14.00;99.90;;;;;;6344373;22;20014;-81
2022/10/28 00:21:07;;;;;;;23.27;11.80;;;14.10;99.90;;;;;;6371661;22;20082;-81
2022/10/28 00:23:33;;;;;;;24.88;12.30;;;14.00;99.90;;;;;;6372068;22;20014;-81
2022/10/28 00:26:07;;;;;;;17.30;11.13;;;14.00;99.90;;;;;;6343904;22;20476;-81
2022/10/28 00:28:33;;;;;;;25.25;11.57;;;13.90;99.90;;;;;;6344208;22;20022;-82
2022/10/28 00:31:06;;;;;;;20.35;12.20;;;14.00;99.90;;;;;;6371977;22;20318;-81
2022/10/28 00:33:32;;;;;;;22.55;12.55;;;13.90;99.90;;;;;;6371703;22;20019;-81
2022/10/28 00:36:44;;;;;;;24.85;13.60;;;14.00;99.90;;;;;;6343754;22;20307;-81
2022/10/28 00:39:15;;;;;;;24.67;12.88;;;14.00;99.90;;;;;;6302270;22;20015;-81
2022/10/28 00:41:45;;;;;;;24.45;11.95;;;14.00;99.90;;;;;;6343534;22;20506;-81
2022/10/28 00:44:48;;;;;;;23.02;12.65;;;14.00;99.90;;;;;;6343606;22;20060;-81
2022/10/28 00:47:36;;;;;;;19.98;12.90;;;13.90;99.90;;;;;;6371909;22;20022;-81
2022/10/28 00:50:32;;;;;;;26.13;13.45;;;14.00;99.90;;;;;;6371850;22;20002;-81
2022/10/28 00:53:06;;;;;;;20.83;12.20;;;14.00;99.90;;;;;;6371258;22;20101;-81
2022/10/28 00:55:33;;;;;;;24.67;12.48;;;13.90;99.90;;;;;;6371766;22;20017;-82
2022/10/28 00:58:00;;;;;;;18.02;12.07;;;13.90;99.90;;;;;;6343486;22;20018;-81
2022/10/28 01:00:26;;;;;;;22.20;12.73;;;13.90;99.90;;;;;;6371717;22;20034;-82
2022/10/28 01:02:52;;;;;;;25.58;12.82;;;13.90;99.90;;;;;;6342905;22;20021;-81
2022/10/28 01:05:25;;;;;;;27.70;13.38;;;13.90;99.90;;;;;;6371602;22;20029;-81
2022/10/28 01:07:54;;;;;;;25.88;15.30;;;14.00;99.90;;;;;;6371684;22;20089;-81
2022/10/28 01:10:31;;;;;;;23.20;13.43;;;14.00;99.90;;;;;;6343442;22;20085;-81
2022/10/28 01:13:19;;;;;;;30.00;14.88;;;14.00;99.90;;;;;;6371525;22;20018;-80
2022/10/28 01:15:53;;;;;;;29.02;15.52;;;14.10;99.90;;;;;;6371255;22;20514;-81
2022/10/28 01:18:35;;;;;;;22.10;14.02;;;14.10;99.90;;;;;;6371584;22;20014;-81
2022/10/28 01:21:33;;;;;;;24.23;14.55;;;14.10;99.90;;;;;;6371481;22;20010;-81
2022/10/28 01:24:14;;;;;;;24.65;13.85;;;14.00;99.90;;;;;;6371528;22;20046;-81
2022/10/28 01:27:06;;;;;;;21.92;13.75;;;13.90;99.90;;;;;;6371517;22;20002;-81
2022/10/28 01:30:03;;;;;;;23.80;14.27;;;14.00;99.90;;;;;;6371066;22;20342;-82
2022/10/28 01:32:38;;;;;;;26.63;14.57;;;13.90;99.90;;;;;;6343226;22;20014;-82
2022/10/28 01:35:22;;;;;;;24.80;15.07;;;13.80;99.90;;;;;;6371706;22;20184;-82
2022/10/28 01:38:31;;;;;;;25.63;14.20;;;13.90;99.90;;;;;;6370982;22;20464;-81
2022/10/28 01:41:12;;;;;;;24.17;13.48;;;13.80;99.90;;;;;;6244261;23;20079;-81
2022/10/28 01:43:45;;;;;;;25.95;14.30;;;13.80;99.90;;;;;;6244137;23;20023;-81
2022/10/28 01:46:29;;;;;;;24.17;14.02;;;13.70;99.90;;;;;;6326459;22;20011;-81
2022/10/28 01:49:03;;;;;;;26.35;14.52;;;13.70;99.90;;;;;;6343243;22;20323;-82
2022/10/28 01:51:33;;;;;;;28.95;15.73;;;13.70;99.90;;;;;;6371001;22;20052;-82
2022/10/28 01:54:03;;;;;;;23.27;13.77;;;13.70;99.90;;;;;;6343175;22;20049;-82
2022/10/28 01:56:39;;;;;;;28.77;14.00;;;13.70;99.90;;;;;;6371193;22;20096;-82
2022/10/28 01:59:08;;;;;;;24.90;13.48;;;13.70;99.90;;;;;;6343165;22;20022;-81
2022/10/28 02:01:35;;;;;;;22.88;13.70;;;13.70;99.90;;;;;;6370750;22;20014;-82
2022/10/28 02:04:01;;;;;;;25.85;14.20;;;13.70;99.90;;;;;;6342998;22;20090;-82
2022/10/28 02:06:29;;;;;;;30.92;14.00;;;13.60;99.90;;;;;;6371077;22;20042;-81
2022/10/28 02:09:23;;;;;;;28.60;13.77;;;13.60;99.90;;;;;;6371123;22;20006;-81
2022/10/28 02:12:12;;;;;;;23.58;13.90;;;13.50;99.90;;;;;;6370786;22;20072;-81
2022/10/28 02:14:57;;;;;;;24.33;14.23;;;13.60;99.90;;;;;;6370964;22;20042;-81
2022/10/28 02:17:41;;;;;;;26.30;14.68;;;13.50;99.90;;;;;;6371140;22;20010;-81
2022/10/28 02:20:16;;;;;;;26.67;14.20;;;13.50;99.90;;;;;;6371060;22;20010;-81
2022/10/28 02:22:45;;;;;;;24.23;14.27;;;13.50;99.90;;;;;;6371002;22;20040;-82
2022/10/28 02:25:18;;;;;;;30.60;14.98;;;13.40;99.90;;;;;;6342809;22;20456;-81
2022/10/28 02:27:53;;;;;;;25.25;14.05;;;13.50;99.90;;;;;;6343005;22;20438;-82
2022/10/28 02:30:44;;;;;;;22.60;14.70;;;13.50;99.90;;;;;;6342987;22;20011;-81
2022/10/28 02:33:14;;;;;;;23.33;14.18;;;13.50;99.90;;;;;;6371097;22;20021;-81
2022/10/28 02:35:42;;;;;;;23.52;15.68;;;13.40;99.90;;;;;;6370999;22;20018;-82
2022/10/28 02:38:20;;;;;;;25.88;14.90;;;13.50;99.90;;;;;;6343273;22;20010;-81
2022/10/28 02:40:50;;;;;;;25.17;15.52;;;13.40;99.90;;;;;;6371029;22;20022;-82
2022/10/28 02:43:18;;;;;;;30.60;15.98;;;13.50;99.90;;;;;;6342793;22;20057;-82
2022/10/28 02:45:50;;;;;;;33.60;16.40;;;13.50;99.90;;;;;;6370631;22;20018;-82
2022/10/28 02:48:22;;;;;;;31.27;16.38;;;13.50;99.90;;;;;;6342830;22;20105;-82
2022/10/28 02:50:56;;;;;;;30.13;15.23;;;13.50;99.90;;;;;;6342808;22;20022;-82
2022/10/28 02:53:29;;;;;;;29.70;15.98;;;13.50;99.90;;;;;;6370436;22;20256;-82
2022/10/28 02:55:56;;;;;;;29.00;17.08;;;13.40;99.90;;;;;;6342824;22;20019;-82
2022/10/28 02:58:22;;;;;;;29.58;16.70;;;13.50;99.90;;;;;;6370511;22;20438;-82
2022/10/28 03:00:48;;;;;;;29.05;17.05;;;13.50;99.90;;;;;;6370826;22;20018;-81
2022/10/28 03:03:14;;;;;;;25.75;16.02;;;13.50;99.90;;;;;;6342632;22;20025;-82
2022/10/28 03:05:40;;;;;;;26.10;15.45;;;13.50;99.90;;;;;;6370549;22;20014;-82
2022/10/28 03:08:05;;;;;;;22.75;15.98;;;13.40;99.90;;;;;;6342528;22;20019;-81
2022/10/28 03:10:31;;;;;;;23.80;15.73;;;13.40;99.90;;;;;;6370816;22;20015;-81
2022/10/28 03:12:56;;;;;;;31.17;16.90;;;13.40;99.90;;;;;;6370817;22;20067;-81
2022/10/28 03:15:22;;;;;;;30.60;16.60;;;13.40;99.90;;;;;;6370429;22;20072;-82
2022/10/28 03:17:47;;;;;;;29.05;16.17;;;13.40;99.90;;;;;;6342640;22;20015;-81
2022/10/28 03:20:13;;;;;;;32.08;17.45;;;13.40;99.90;;;;;;6370451;22;20022;-81
2022/10/28 03:22:42;;;;;;;34.10;17.35;;;13.40;99.90;;;;;;6370576;22;20022;-81
2022/10/28 03:25:07;;;;;;;34.80;17.00;;;13.40;99.90;;;;;;6371045;22;20038;-81
2022/10/28 03:27:33;;;;;;;32.22;16.40;;;13.40;99.90;;;;;;6372632;22;20043;-81
2022/10/28 03:29:58;;;;;;;34.42;17.30;;;13.40;99.90;;;;;;6344677;22;20386;-81
2022/10/28 03:32:24;;;;;;;27.67;16.05;;;13.50;99.90;;;;;;6372626;22;20034;-82
2022/10/28 03:34:50;;;;;;;34.67;16.30;;;13.40;99.90;;;;;;6372576;22;20018;-82
2022/10/28 03:37:15;;;;;;;30.70;16.58;;;13.40;99.90;;;;;;6344346;22;20018;-81
2022/10/28 03:39:41;;;;;;;32.53;16.40;;;13.40;99.90;;;;;;6344300;22;20319;-81
2022/10/28 03:42:06;;;;;;;27.20;16.45;;;13.40;99.90;;;;;;6372446;22;20446;-81
2022/10/28 03:44:32;;;;;;;27.73;16.10;;;13.30;99.90;;;;;;6344181;22;20019;-81
2022/10/28 03:46:57;;;;;;;28.98;16.45;;;13.40;99.90;;;;;;6344184;22;20015;-82
2022/10/28 03:49:23;;;;;;;31.20;17.70;;;13.40;99.90;;;;;;6344145;22;20068;-82
2022/10/28 03:51:49;;;;;;;25.85;16.30;;;13.40;99.90;;;;;;6371529;22;20042;-82
2022/10/28 03:54:14;;;;;;;30.63;16.88;;;13.40;99.90;;;;;;6372372;22;20122;-82
2022/10/28 03:56:40;;;;;;;27.58;15.10;;;13.30;99.90;;;;;;6372311;22;20048;-82
2022/10/28 03:59:08;;;;;;;26.55;15.95;;;13.40;99.90;;;;;;6372345;22;20021;-82
2022/10/28 04:01:34;;;;;;;32.60;16.95;;;13.30;99.90;;;;;;6372252;22;20017;-82
2022/10/28 04:03:59;;;;;;;27.27;15.23;;;13.30;99.90;;;;;;6372337;22;20014;-82
2022/10/28 04:06:25;;;;;;;24.92;14.88;;;13.30;99.90;;;;;;6343986;22;20010;-82
2022/10/28 04:08:50;;;;;;;26.38;15.23;;;13.30;99.90;;;;;;6371871;22;20442;-82
2022/10/28 04:11:16;;;;;;;28.98;16.20;;;13.30;99.90;;;;;;6372274;22;20493;-81
2022/10/28 04:13:42;;;;;;;31.92;16.17;;;13.30;99.90;;;;;;6372103;22;20006;-81
2022/10/28 04:16:07;;;;;;;26.50;16.15;;;13.20;99.90;;;;;;6343859;22;20045;-81
2022/10/28 04:18:34;;;;;;;29.83;16.73;;;13.20;99.90;;;;;;6371720;22;20018;-81
2022/10/28 04:21:00;;;;;;;32.50;16.98;;;13.30;99.90;;;;;;6372023;22;20064;-81
2022/10/28 04:23:25;;;;;;;24.23;15.82;;;13.20;99.90;;;;;;6372129;22;20426;-81
2022/10/28 04:25:54;;;;;;;29.95;15.45;;;13.20;99.90;;;;;;6372089;22;20010;-81
2022/10/28 04:28:23;;;;;;;31.95;17.08;;;13.20;99.90;;;;;;6343789;22;20054;-81
2022/10/28 04:30:48;;;;;;;26.25;16.63;;;13.20;99.90;;;;;;6343736;22;20046;-81
2022/10/28 04:33:14;;;;;;;28.13;16.13;;;13.20;99.90;;;;;;6343729;22;20013;-82
2022/10/28 04:35:42;;;;;;;32.38;17.52;;;13.20;99.90;;;;;;6371957;22;20018;-82
2022/10/28 04:38:09;;;;;;;30.25;16.67;;;13.20;99.90;;;;;;6371654;22;20372;-82
2022/10/28 04:40:35;;;;;;;38.08;17.70;;;13.20;99.90;;;;;;6371854;22;20018;-82
2022/10/28 04:43:00;;;;;;;33.97;16.90;;;13.10;99.90;;;;;;6371428;22;20067;-81
2022/10/28 04:45:26;;;;;;;27.90;17.17;;;13.10;99.90;;;;;;6371616;22;20067;-81
2022/10/28 04:47:59;;;;;;;29.05;16.70;;;13.10;99.90;;;;;;6343614;22;20015;-81
2022/10/28 04:50:25;;;;;;;;;;;13.10;99.90;;;;;;6372317;22;20018;-82
2022/10/28 04:52:50;;;;;;;29.52;17.05;;;13.10;99.90;;;;;;6371301;22;19950;-82
2022/10/28 04:55:16;;;;;;;33.25;16.50;;;13.10;99.90;;;;;;6371440;22;20340;-82
2022/10/28 04:57:42;;;;;;;29.33;16.73;;;13.20;99.90;;;;;;6371675;22;20089;-82
2022/10/28 05:00:08;;;;;;;25.77;16.55;;;13.10;99.90;;;;;;6343610;22;20019;-81
2022/10/28 05:02:34;;;;;;;31.85;16.95;;;13.10;99.90;;;;;;6371258;22;20445;-81
2022/10/28 05:05:02;;;;;;;29.98;17.40;;;13.10;99.90;;;;;;6371326;22;20141;-81
2022/10/28 05:07:28;;;;;;;28.88;17.40;;;13.10;99.90;;;;;;6371641;22;20022;-81
2022/10/28 05:09:53;;;;;;;31.58;18.42;;;13.00;99.90;;;;;;6371676;22;20015;-81
2022/10/28 05:12:19;;;;;;;27.30;16.15;;;13.00;99.90;;;;;;6371288;22;20089;-81
2022/10/28 05:14:45;;;;;;;31.90;18.30;;;13.00;99.90;;;;;;6343453;22;20051;-81
2022/10/28 05:17:10;;;;;;;31.80;18.65;;;12.90;99.90;;;;;;6371545;22;20072;-82
2022/10/28 05:19:36;;;;;;;31.27;16.75;;;12.90;99.90;;;;;;6371533;22;20059;-82
2022/10/28 05:22:02;;;;;;;32.70;17.27;;;13.00;99.90;;;;;;6343291;22;20090;-81
2022/10/28 05:24:27;;;;;;;28.50;16.95;;;13.00;99.90;;;;;;6371162;22;20014;-82
2022/10/28 05:26:58;;;;;;;30.98;18.75;;;13.00;99.90;;;;;;6371415;22;20011;-81
2022/10/28 05:29:24;;;;;;;32.42;18.65;;;12.90;99.90;;;;;;6371522;22;20122;-82
2022/10/28 05:31:49;;;;;;;37.28;17.60;;;13.00;99.90;;;;;;6371417;22;20397;-81
2022/10/28 05:34:15;;;;;;;32.40;19.35;;;13.00;99.90;;;;;;6371419;22;20018;-81
2022/10/28 05:36:40;;;;;;;35.13;18.95;;;13.00;99.90;;;;;;6371537;22;20341;-81
2022/10/28 05:39:06;;;;;;;35.00;19.67;;;13.00;99.90;;;;;;6371344;22;20010;-81
2022/10/28 05:41:32;;;;;;;38.22;20.50;;;13.00;99.90;;;;;;6343130;22;20018;-81
2022/10/28 05:43:57;;;;;;;37.65;19.92;;;12.90;99.90;;;;;;6371315;22;20014;-81
2022/10/28 05:46:23;;;;;;;38.70;21.02;;;13.00;99.90;;;;;;6370972;22;20021;-81
2022/10/28 05:48:48;;;;;;;36.22;20.23;;;13.00;99.90;;;;;;6370924;22;20315;-81
2022/10/28 05:51:14;;;;;;;38.35;21.42;;;13.00;99.90;;;;;;6343109;22;20025;-81
2022/10/28 05:53:41;;;;;;;35.65;21.40;;;13.00;99.90;;;;;;6342955;22;20017;-81
2022/10/28 05:56:07;;;;;;;40.33;22.50;;;13.10;99.90;;;;;;6371162;22;20028;-81
2022/10/28 05:58:33;;;;;;;39.95;22.38;;;13.00;99.90;;;;;;6343050;22;20017;-82
2022/10/28 06:00:59;;;;;;;41.15;21.80;;;13.00;99.90;;;;;;6370664;22;20018;-82
2022/10/28 06:03:24;;;;;;;34.92;21.05;;;13.10;99.90;;;;;;6371130;22;20014;-81
2022/10/28 06:05:50;;;;;;;39.55;21.77;;;13.00;99.90;;;;;;6371141;22;20042;-81
2022/10/28 06:08:16;;;;;;;43.60;23.55;;;13.00;99.90;;;;;;6370809;22;20446;-81
2022/10/28 06:10:49;;;;;;;42.53;22.70;;;13.10;99.90;;;;;;6371176;22;20131;-81
2022/10/28 06:13:15;;;;;;;43.78;22.33;;;13.10;99.90;;;;;;6371081;22;20014;-81
2022/10/28 06:15:40;;;;;;;42.88;22.77;;;13.10;99.90;;;;;;6342269;22;20010;-81
2022/10/28 06:18:06;;;;;;;46.60;23.90;;;13.00;99.90;;;;;;6342938;22;20105;-81
2022/10/28 06:20:31;;;;;;;45.28;23.35;;;13.10;99.90;;;;;;6342888;22;20342;-81
2022/10/28 06:22:57;;;;;;;40.28;23.70;;;13.00;99.90;;;;;;6342685;22;20338;-81
2022/10/28 06:25:24;;;;;;;41.83;23.52;;;13.10;99.90;;;;;;6342810;22;20017;-81
2022/10/28 06:27:58;;;;;;;40.70;21.85;;;13.10;99.90;;;;;;6342680;22;20338;-81
2022/10/28 06:30:25;;;;;;;43.67;23.17;;;13.10;99.90;;;;;;6342658;22;20022;-81
2022/10/28 06:32:50;;;;;;;43.85;23.38;;;13.10;99.90;;;;;;6370798;22;20026;-81
2022/10/28 06:35:16;;;;;;;40.00;23.23;;;13.10;99.90;;;;;;6342699;22;20010;-81
2022/10/28 06:37:42;;;;;;;40.38;21.85;;;13.10;99.90;;;;;;6370636;22;20059;-81
2022/10/28 06:40:19;;;;;;;38.47;21.88;;;13.10;99.90;;;;;;6342565;22;20023;-81
2022/10/28 06:42:45;;;;;;;46.20;23.38;;;13.10;99.90;;;;;;6342934;22;20018;-81
2022/10/28 06:45:10;;;;;;;49.45;25.55;;;13.00;99.90;;;;;;6370557;22;20029;-81
2022/10/28 06:47:36;;;;;;;55.80;28.60;;;13.00;99.90;;;;;;6342727;22;20015;-81
2022/10/28 06:50:01;;;;;;;49.55;28.48;;;13.10;99.90;;;;;;6370746;22;20010;-80
2022/10/28 06:52:27;;;;;;;54.45;30.40;;;13.10;99.90;;;;;;6370434;22;20469;-79
2022/10/28 06:54:53;;;;;;;49.42;29.50;;;13.10;99.90;;;;;;6370837;22;20010;-79
2022/10/28 06:57:19;;;;;;;43.80;24.50;;;13.10;99.90;;;;;;6370386;22;20019;-80
2022/10/28 06:59:44;;;;;;;45.40;24.63;;;13.10;99.90;;;;;;6343837;22;20063;-79
2022/10/28 07:02:11;;;;;;;45.17;24.70;;;13.20;99.90;;;;;;6372671;22;20018;-79
2022/10/28 07:04:37;;;;;;;56.78;26.65;;;13.10;99.90;;;;;;6372365;22;20441;-79
2022/10/28 07:07:02;;;;;;;44.05;26.20;;;13.10;99.90;;;;;;6372327;22;20024;-80
2022/10/28 07:09:28;;;;;;;44.38;23.23;;;13.20;99.90;;;;;;6372545;22;20022;-80
2022/10/28 07:11:53;;;;;;;39.97;23.70;;;13.20;99.90;;;;;;6372619;22;20042;-80
2022/10/28 07:14:19;;;;;;;40.92;23.88;;;13.20;99.90;;;;;;6344467;22;20029;-80
2022/10/28 07:16:45;;;;;;;42.97;24.15;;;13.30;99.90;;;;;;6344558;22;20022;-81
2022/10/28 07:19:10;;;;;;;39.53;23.35;;;13.30;99.90;;;;;;6344380;22;20022;-80
2022/10/28 07:21:36;;;;;;;42.35;22.92;;;13.30;99.90;;;;;;6344169;22;20014;-80
2022/10/28 07:24:02;;;;;;;42.38;23.55;;;13.30;99.90;;;;;;6372474;22;20025;-81
2022/10/28 07:26:28;;;;;;;51.60;23.83;;;13.30;99.90;;;;;;6342946;22;20452;-80
2022/10/28 07:28:53;;;;;;;36.65;20.77;;;13.40;99.90;;;;;;6343876;22;20109;-80
2022/10/28 07:31:20;;;;;;;41.28;21.92;;;13.40;99.90;;;;;;6371917;22;20430;-80
2022/10/28 07:33:51;;;;;;;40.63;22.20;;;13.50;99.90;;;;;;6343977;22;20050;-80
2022/10/28 07:36:17;;;;;;;35.08;20.70;;;13.50;99.90;;;;;;6343999;22;20022;-79
2022/10/28 07:38:43;;;;;;;38.45;20.48;;;13.50;99.90;;;;;;6343909;22;20082;-81
2022/10/28 07:41:09;;;;;;;37.60;20.58;;;13.50;99.90;;;;;;6371816;22;20022;-80
2022/10/28 07:43:36;;;;;;;39.90;21.50;;;13.60;99.90;;;;;;6371844;22;20018;-81
2022/10/28 07:46:01;;;;;;;41.10;20.73;;;13.60;99.90;;;;;;6370778;22;20101;-80
2022/10/28 07:48:27;;;;;;;35.17;19.67;;;13.70;99.90;;;;;;6344129;22;20049;-80
2022/10/28 07:50:53;;;;;;;35.85;20.88;;;13.70;99.90;;;;;;6371778;22;20029;-80
2022/10/28 07:53:19;;;;;;;37.97;19.55;;;13.80;99.90;;;;;;6371779;22;20014;-80
2022/10/28 07:55:44;;;;;;;37.53;20.95;;;13.80;99.90;;;;;;6371871;22;20303;-80
2022/10/28 07:58:10;;;;;;;34.13;20.75;;;13.90;99.90;;;;;;6343766;22;20014;-79
2022/10/28 08:00:36;;;;;;;38.30;20.50;;;13.90;99.90;;;;;;6371619;22;20026;-79
2022/10/28 08:03:02;;;;;;;32.80;19.08;;;14.10;99.90;;;;;;6371778;22;20022;-79
2022/10/28 08:05:27;;;;;;;38.33;18.52;;;14.10;99.90;;;;;;6371632;22;20018;-81
2022/10/28 08:07:53;;;;;;;36.33;19.83;;;14.20;99.90;;;;;;6344007;22;20056;-80
2022/10/28 08:10:19;;;;;;;30.73;17.85;;;14.30;99.90;;;;;;6343317;22;20029;-80
2022/10/28 08:12:45;;;;;;;29.38;17.35;;;14.20;99.90;;;;;;6371045;22;20025;-80
2022/10/28 08:15:13;;;;;;;32.28;17.30;;;14.30;99.90;;;;;;6371507;22;20020;-80
2022/10/28 08:17:39;;;;;;;30.25;17.80;;;14.40;99.90;;;;;;6343467;22;20081;-80
2022/10/28 08:20:05;;;;;;;35.22;17.92;;;14.50;99.90;;;;;;6371736;22;20045;-80
2022/10/28 08:22:31;;;;;;;27.50;16.13;;;14.50;99.90;;;;;;6371232;22;20063;-80
2022/10/28 08:24:56;;;;;;;29.30;16.40;;;14.60;99.90;;;;;;6343406;22;20010;-80
2022/10/28 08:27:22;;;;;;;26.17;15.23;;;14.60;99.90;;;;;;6371641;22;20014;-79
2022/10/28 08:29:48;;;;;;;32.42;14.80;;;14.70;99.90;;;;;;6371259;22;20097;-81
2022/10/28 08:32:13;;;;;;;27.92;14.73;;;14.70;99.90;;;;;;6341339;22;20346;-80
2022/10/28 08:34:39;;;;;;;32.20;15.27;;;14.90;99.90;;;;;;6341191;22;20021;-83
2022/10/28 08:37:04;;;;;;;22.52;14.30;;;14.90;99.90;;;;;;6342751;22;20014;-82
2022/10/28 08:39:30;;;;;;;27.10;15.27;;;15.10;99.90;;;;;;6343182;22;20018;-84
2022/10/28 08:42:33;;;;;;;26.15;14.05;;;15.20;99.90;;;;;;6343339;22;20022;-85
2022/10/28 08:45:20;;;;;;;25.47;13.73;;;15.20;99.90;;;;;;6371252;22;20054;-85
2022/10/28 08:48:32;;;;;;;21.63;12.90;;;15.20;99.90;;;;;;6343207;22;20018;-83
2022/10/28 08:51:21;;;;;;;25.55;13.00;;;15.30;99.90;;;;;;6301277;22;20332;-81
2022/10/28 08:53:53;;;;;;;27.13;12.57;;;15.40;99.90;;;;;;6351633;22;20046;-81
2022/10/28 08:56:29;;;;;;;25.33;12.23;;;15.50;99.90;;;;;;6343567;22;20071;-83
2022/10/28 08:58:59;;;;;;;28.30;12.60;;;15.50;99.90;;;;;;6371037;22;20380;-82
2022/10/28 09:01:58;;;;;;;20.90;12.68;;;15.60;99.90;;;;;;6343085;22;20015;-82
2022/10/28 09:04:38;;;;;;;28.80;13.05;;;15.70;99.90;;;;;;6336076;22;20018;-84
2022/10/28 09:07:04;;;;;;;26.13;13.00;;;15.70;99.90;;;;;;6343313;22;20011;-80
2022/10/28 09:09:30;;;;;;;24.50;11.77;;;15.70;99.90;;;;;;6371266;22;20018;-80
2022/10/28 09:12:09;;;;;;;25.98;11.80;;;15.80;99.90;;;;;;6370975;22;20010;-80
2022/10/28 09:14:59;;;;;;;21.95;11.13;;;15.70;99.90;;;;;;6370924;22;20346;-80
2022/10/28 09:17:35;;;;;;;23.85;11.18;;;15.80;99.90;;;;;;6371253;22;20022;-80
2022/10/28 09:20:14;;;;;;;24.75;11.07;;;15.90;99.90;;;;;;6370909;22;20059;-79
2022/10/28 09:22:58;;;;;;;25.50;11.18;;;15.80;99.90;;;;;;6342493;22;20450;-80
2022/10/28 09:25:28;;;;;;;25.52;11.23;;;15.80;99.90;;;;;;6370516;22;20450;-79
2022/10/28 09:28:12;;;;;;;20.85;11.43;;;16.00;99.90;;;;;;6370580;22;20021;-79
2022/10/28 09:30:40;;;;;;;28.02;11.18;;;15.90;99.90;;;;;;6370989;22;20075;-79
2022/10/28 09:33:24;;;;;;;21.50;10.80;;;15.90;99.90;;;;;;6371018;22;20091;-78
2022/10/28 09:35:50;;;;;;;20.88;10.60;;;16.10;99.90;;;;;;6370599;22;20054;-79
2022/10/28 09:38:21;;;;;;;21.38;9.55;;;16.10;99.90;;;;;;6370992;22;20402;-78
2022/10/28 09:40:55;;;;;;;19.08;9.70;;;16.00;99.90;;;;;;6370522;22;20022;-79
2022/10/28 09:43:23;;;;;;;18.58;8.75;;;16.10;99.90;;;;;;6342689;22;20111;-79
2022/10/28 09:45:52;;;;;;;25.75;10.40;;;16.00;99.90;;;;;;6370813;22;20063;-79
2022/10/28 09:48:33;;;;;;;19.88;9.35;;;16.10;99.90;;;;;;6342701;22;20025;-79
2022/10/28 09:50:59;;;;;;;25.73;9.77;;;16.10;99.90;;;;;;6370334;22;20025;-79
2022/10/28 09:53:49;;;;;;;25.20;9.32;;;16.10;99.90;;;;;;6343107;22;20086;-78
2022/10/28 09:56:15;;;;;;;21.95;10.13;;;16.20;99.90;;;;;;6371073;22;20021;-78
2022/10/28 09:58:45;;;;;;;23.63;9.70;;;16.20;99.90;;;;;;6370974;22;20014;-78
2022/10/28 10:01:12;;;;;;;17.40;9.40;;;16.30;99.90;;;;;;6371188;22;20011;-79
2022/10/28 10:03:40;;;;;;;24.80;9.82;;;16.20;99.90;;;;;;6371230;22;20025;-78
2022/10/28 10:06:35;;;;;;;20.77;8.85;;;16.30;99.90;;;;;;6371459;22;20022;-79
2022/10/28 10:09:01;;;;;;;21.92;9.18;;;16.40;99.90;;;;;;6367533;22;20039;-79
2022/10/28 10:11:37;;;;;;;18.90;9.80;;;16.30;99.90;;;;;;6370956;22;20033;-79
2022/10/28 10:14:13;;;;;;;16.15;9.63;;;16.40;99.90;;;;;;6371850;22;20011;-79
2022/10/28 10:16:51;;;;;;;26.63;10.38;;;16.40;99.90;;;;;;6343221;22;20018;-79
2022/10/28 10:19:16;;;;;;;24.77;10.30;;;16.40;99.90;;;;;;6371432;22;20085;-79
2022/10/28 10:21:50;;;;;;;21.77;10.40;;;16.40;99.90;;;;;;6342882;22;20050;-80
2022/10/28 10:24:29;;;;;;;23.30;10.77;;;16.50;99.90;;;;;;6370913;22;20018;-78
2022/10/28 10:27:11;;;;;;;22.33;10.00;;;16.50;99.90;;;;;;6342925;22;20074;-79
2022/10/28 10:29:44;;;;;;;20.17;9.47;;;16.60;99.90;;;;;;6370839;22;20044;-80
2022/10/28 10:32:28;;;;;;;18.88;9.77;;;16.60;99.90;;;;;;6343134;22;20046;-81
2022/10/28 10:35:23;;;;;;;24.58;9.68;;;16.70;99.90;;;;;;6372069;22;20026;-80
2022/10/28 10:37:55;;;;;;;22.50;9.55;;;16.70;99.90;;;;;;6356358;22;20390;-79
2022/10/28 10:40:25;;;;;;;21.85;9.98;;;16.70;99.90;;;;;;6373200;22;20019;-80
2022/10/28 10:42:51;;;;;;;18.45;8.55;;;16.80;99.90;;;;;;6372596;22;20022;-80
2022/10/28 10:45:26;;;;;;;17.95;8.50;;;16.90;99.90;;;;;;6372895;22;20085;-81
2022/10/28 10:48:13;;;;;;;22.02;9.30;;;17.00;99.90;;;;;;6345100;22;20018;-82
2022/10/28 10:50:43;;;;;;;18.50;8.90;;;17.10;99.90;;;;;;6372537;22;20100;-79
2022/10/28 10:53:23;;;;;;;22.63;10.00;;;17.20;99.90;;;;;;6372831;22;20011;-79
2022/10/28 10:56:01;;;;;;;22.40;9.00;;;17.10;99.90;;;;;;6372500;22;20026;-81
2022/10/28 10:58:33;;;;;;;23.58;9.23;;;17.10;99.90;;;;;;6372533;22;20006;-80
2022/10/28 11:01:02;;;;;;;21.98;8.82;;;17.10;99.90;;;;;;6372902;22;20019;-82
2022/10/28 11:03:37;;;;;;;24.60;9.00;;;17.20;99.90;;;;;;6372911;22;20015;-82
2022/10/28 11:06:06;;;;;;;25.55;9.90;;;17.30;99.90;;;;;;6345126;22;20086;-82
2022/10/28 11:08:41;;;;;;;22.48;8.80;;;17.40;99.90;;;;;;6372858;22;20015;-82
2022/10/28 11:11:18;;;;;;;20.05;8.82;;;17.40;99.90;;;;;;6372840;22;20016;-82
2022/10/28 11:13:45;;;;;;;20.05;8.65;;;17.30;99.90;;;;;;6371999;22;20365;-81
2022/10/28 11:16:24;;;;;;;21.80;9.27;;;17.40;99.90;;;;;;6372821;22;20017;-81
2022/10/28 11:18:52;;;;;;;20.08;9.13;;;17.60;99.90;;;;;;6343559;22;20014;-81
2022/10/28 11:21:51;;;;;;;19.80;9.20;;;17.70;99.90;;;;;;6372148;22;20014;-81
2022/10/28 11:24:54;;;;;;;19.77;8.60;;;17.80;99.90;;;;;;6343865;22;20018;-81
2022/10/28 11:27:47;;;;;;;20.05;9.63;;;18.00;99.90;;;;;;6343979;22;20388;-81
2022/10/28 11:30:17;;;;;;;23.27;8.80;;;18.10;99.90;;;;;;6372260;22;20098;-82
2022/10/28 11:32:51;;;;;;;19.83;8.50;;;18.20;99.90;;;;;;6372373;22;20022;-79
2022/10/28 11:35:35;;;;;;;20.42;8.95;;;18.20;99.90;;;;;;6344091;22;20421;-79
2022/10/28 11:38:22;;;;;;;18.48;9.32;;;18.20;99.90;;;;;;6372199;22;20014;-79
2022/10/28 11:41:07;;;;;;;21.17;8.68;;;18.30;99.90;;;;;;6371000;22;20022;-79
2022/10/28 11:43:51;;;;;;;20.08;7.93;;;18.30;99.90;;;;;;6344356;22;20018;-81
2022/10/28 11:46:19;;;;;;;22.98;8.80;;;18.30;99.90;;;;;;6371335;22;20028;-78
2022/10/28 11:49:34;;;;;;;18.73;8.48;;;18.30;99.90;;;;;;6372312;22;20112;-79
2022/10/28 11:52:40;;;;;;;20.27;8.43;;;18.20;99.90;;;;;;6371122;22;20063;-79
2022/10/28 11:55:39;;;;;;;23.88;8.65;;;18.30;99.90;;;;;;6372234;22;20030;-78
2022/10/28 11:58:30;;;;;;;25.38;8.18;;;18.40;99.90;;;;;;6343963;22;20025;-79
2022/10/28 12:01:15;;;;;;;22.88;7.63;;;18.40;99.90;;;;;;6343913;22;20539;-79
2022/10/28 12:04:11;;;;;;;16.65;7.50;;;18.40;99.90;;;;;;6343696;22;20026;-78
2022/10/28 12:06:52;;;;;;;18.88;8.18;;;18.40;99.90;;;;;;6372136;22;20014;-79
2022/10/28 12:09:24;;;;;;;21.83;8.20;;;18.50;99.90;;;;;;6343923;22;20041;-79
2022/10/28 12:12:08;;;;;;;16.40;7.53;;;18.50;99.90;;;;;;6371881;22;20055;-79
2022/10/28 12:14:45;;;;;;;18.15;7.32;;;18.50;99.90;;;;;;6343660;22;20046;-79
2022/10/28 12:17:39;;;;;;;19.40;8.43;;;18.60;99.90;;;;;;6371891;22;20017;-79
2022/10/28 12:20:14;;;;;;;19.38;7.53;;;18.60;99.90;;;;;;6371966;22;20018;-79
2022/10/28 12:22:47;;;;;;;17.35;7.15;;;18.50;99.90;;;;;;6343657;22;20023;-80
2022/10/28 12:25:18;;;;;;;19.13;7.30;;;18.60;99.90;;;;;;6371819;22;20303;-79
2022/10/28 12:27:47;;;;;;;17.42;7.45;;;18.50;99.90;;;;;;6372030;22;20098;-80
2022/10/28 12:30:20;;;;;;;22.58;8.48;;;18.60;99.90;;;;;;6343753;22;20014;-80
2022/10/28 12:32:48;;;;;;;;;;;18.60;99.90;;;;;;6372293;22;20010;-80
2022/10/28 12:35:21;;;;;;;16.80;7.20;;;18.60;99.90;;;;;;6343667;22;20281;-79
2022/10/28 12:38:15;;;;;;;22.92;8.10;;;18.50;99.90;;;;;;6370955;22;20508;-79
2022/10/28 12:40:52;;;;;;;17.23;7.93;;;18.60;99.90;;;;;;6370516;22;20338;-79
2022/10/28 12:43:25;;;;;;;22.67;8.45;;;18.50;99.90;;;;;;6343388;22;20018;-80
2022/10/28 12:45:53;;;;;;;23.02;8.65;;;18.50;99.90;;;;;;6371891;22;20021;-82
2022/10/28 12:48:43;;;;;;;25.35;8.35;;;18.60;99.90;;;;;;6372049;22;20115;-80
2022/10/28 12:51:18;;;;;;;20.75;9.20;;;18.60;99.90;;;;;;6343667;22;20041;-81
2022/10/28 12:54:26;;;;;;;22.77;9.43;;;18.60;99.90;;;;;;6343727;22;20026;-81
2022/10/28 12:57:00;;;;;;;21.98;10.50;;;18.60;99.90;;;;;;6371301;22;20018;-80